sensor_id;sensor_type;location;lat;lon;timestamp;temperature;humidity
22742;DHT22;11538;48.884;8.696;2022-10-16T00:00:54;16.40;99.90
22742;DHT22;11538;48.884;8.696;2022-10-16T00:03:21;16.40;99.90
22742;DHT22;11538;48.884;8.696;2022-10-16T00:05:58;16.40;99.90
22742;DHT22;11538;48.884;8.696;2022-10-16T00:08:26;16.40;99.90
22742;DHT22;11538;48.884;8.696;2022-10-16T00:10:58;16.40;99.90
22742;DHT22;11538;48.884;8.696;2022-10-16T00:13:25;16.40;99.90
22742;DHT22;11538;48.884;8.696;2022-10-16T00:15:54;16.40;99.90
22742;DHT22;11538;48.884;8.696;2022-10-16T00:18:22;16.40;99.90
22742;DHT22;11538;48.884;8.696;2022-10-16T00:20:50;16.40;99.90
22742;DHT22;11538;48.884;8.696;2022-10-16T00:23:17;16.40;99.90
22742;DHT22;11538;48.884;8.696;2022-10-16T00:25:44;16.40;99.90
22742;DHT22;11538;48.884;8.696;2022-10-16T00:28:11;16.30;99.90
22742;DHT22;11538;48.884;8.696;2022-10-16T00:30:38;16.30;99.90
22742;DHT22;11538;48.884;8.696;2022-10-16T00:33:06;16.40;99.90
22742;DHT22;11538;48.884;8.696;2022-10-16T00:35:33;16.30;99.90
22742;DHT22;11538;48.884;8.696;2022-10-16T00:37:59;16.40;99.90
22742;DHT22;11538;48.884;8.696;2022-10-16T00:40:26;16.30;99.90
22742;DHT22;11538;48.884;8.696;2022-10-16T00:42:54;16.40;99.90
22742;DHT22;11538;48.884;8.696;2022-10-16T00:45:21;16.40;99.90
22742;DHT22;11538;48.884;8.696;2022-10-16T00:47:48;16.40;99.90
22742;DHT22;11538;48.884;8.696;2022-10-16T00:50:18;16.40;99.90
22742;DHT22;11538;48.884;8.696;2022-10-16T00:52:52;16.40;99.90
22742;DHT22;11538;48.884;8.696;2022-10-16T00:55:20;16.40;99.90
22742;DHT22;11538;48.884;8.696;2022-10-16T00:57:48;16.40;99.90
22742;DHT22;11538;48.884;8.696;2022-10-16T01:00:18;16.40;99.90
22742;DHT22;11538;48.884;8.696;2022-10-16T01:02:57;16.30;99.90
22742;DHT22;11538;48.884;8.696;2022-10-16T01:05:29;16.40;99.90
22742;DHT22;11538;48.884;8.696;2022-10-16T01:08:04;16.30;99.90
22742;DHT22;11538;48.884;8.696;2022-10-16T01:10:51;16.40;99.90
22742;DHT22;11538;48.884;8.696;2022-10-16T01:13:27;16.40;99.90
22742;DHT22;11538;48.884;8.696;2022-10-16T01:16:04;16.40;99.90
22742;DHT22;11538;48.884;8.696;2022-10-16T01:18:44;16.40;99.90
22742;DHT22;11538;48.884;8.696;2022-10-16T01:21:14;16.40;99.90
22742;DHT22;11538;48.884;8.696;2022-10-16T01:29:09;16.50;99.90
22742;DHT22;11538;48.884;8.696;2022-10-16T01:31:47;16.50;99.90
22742;DHT22;11538;48.884;8.696;2022-10-16T01:34:32;16.60;99.90
22742;DHT22;11538;48.884;8.696;2022-10-16T01:37:12;16.60;99.90
22742;DHT22;11538;48.884;8.696;2022-10-16T01:39:42;16.60;99.90
22742;DHT22;11538;48.884;8.696;2022-10-16T01:42:16;16.60;99.90
22742;DHT22;11538;48.884;8.696;2022-10-16T01:44:46;16.70;99.90
22742;DHT22;11538;48.884;8.696;2022-10-16T01:47:15;16.70;99.90
22742;DHT22;11538;48.884;8.696;2022-10-16T01:49:43;16.70;99.90
22742;DHT22;11538;48.884;8.696;2022-10-16T01:52:17;16.70;99.90
22742;DHT22;11538;48.884;8.696;2022-10-16T01:54:49;16.70;99.90
22742;DHT22;11538;48.884;8.696;2022-10-16T01:57:20;16.70;99.90
22742;DHT22;11538;48.884;8.696;2022-10-16T01:59:49;16.70;99.90
22742;DHT22;11538;48.884;8.696;2022-10-16T02:02:20;16.70;99.90
22742;DHT22;11538;48.884;8.696;2022-10-16T02:04:51;16.70;99.90
22742;DHT22;11538;48.884;8.696;2022-10-16T02:07:21;16.80;99.90
22742;DHT22;11538;48.884;8.696;2022-10-16T02:09:48;16.70;99.90
22742;DHT22;11538;48.884;8.696;2022-10-16T02:12:17;16.70;99.90
22742;DHT22;11538;48.884;8.696;2022-10-16T02:14:50;16.70;99.90
22742;DHT22;11538;48.884;8.696;2022-10-16T02:17:17;16.70;99.90
22742;DHT22;11538;48.884;8.696;2022-10-16T02:19:44;16.70;99.90
22742;DHT22;11538;48.884;8.696;2022-10-16T02:22:57;16.70;99.90
22742;DHT22;11538;48.884;8.696;2022-10-16T02:25:15;16.70;99.90
22742;DHT22;11538;48.884;8.696;2022-10-16T02:27:59;16.70;99.90
22742;DHT22;11538;48.884;8.696;2022-10-16T02:30:32;16.70;99.90
22742;DHT22;11538;48.884;8.696;2022-10-16T02:33:03;16.70;99.90
22742;DHT22;11538;48.884;8.696;2022-10-16T02:35:33;16.70;99.90
22742;DHT22;11538;48.884;8.696;2022-10-16T02:38:01;16.70;99.90
22742;DHT22;11538;48.884;8.696;2022-10-16T02:40:28;16.70;99.90
22742;DHT22;11538;48.884;8.696;2022-10-16T02:42:55;16.70;99.90
22742;DHT22;11538;48.884;8.696;2022-10-16T02:45:22;16.60;99.90
22742;DHT22;11538;48.884;8.696;2022-10-16T02:47:50;16.70;99.90
22742;DHT22;11538;48.884;8.696;2022-10-16T02:50:16;16.70;99.90
22742;DHT22;11538;48.884;8.696;2022-10-16T02:52:43;16.70;99.90
22742;DHT22;11538;48.884;8.696;2022-10-16T02:55:10;16.70;99.90
22742;DHT22;11538;48.884;8.696;2022-10-16T02:57:37;16.70;99.90
22742;DHT22;11538;48.884;8.696;2022-10-16T03:00:04;16.70;99.90
22742;DHT22;11538;48.884;8.696;2022-10-16T03:02:31;16.70;99.90
22742;DHT22;11538;48.884;8.696;2022-10-16T03:04:58;16.70;99.90
22742;DHT22;11538;48.884;8.696;2022-10-16T03:07:25;16.70;99.90
22742;DHT22;11538;48.884;8.696;2022-10-16T03:09:52;16.60;99.90
22742;DHT22;11538;48.884;8.696;2022-10-16T03:12:19;16.60;99.90
22742;DHT22;11538;48.884;8.696;2022-10-16T03:14:46;16.60;99.90
22742;DHT22;11538;48.884;8.696;2022-10-16T03:17:13;16.60;99.90
22742;DHT22;11538;48.884;8.696;2022-10-16T03:19:43;16.50;99.90
22742;DHT22;11538;48.884;8.696;2022-10-16T03:22:09;16.60;99.90
22742;DHT22;11538;48.884;8.696;2022-10-16T03:24:36;16.50;99.90
22742;DHT22;11538;48.884;8.696;2022-10-16T03:27:03;16.50;99.90
22742;DHT22;11538;48.884;8.696;2022-10-16T03:29:30;16.50;99.90
22742;DHT22;11538;48.884;8.696;2022-10-16T03:31:58;16.50;99.90
22742;DHT22;11538;48.884;8.696;2022-10-16T03:34:25;16.50;99.90
22742;DHT22;11538;48.884;8.696;2022-10-16T03:36:52;16.50;99.90
22742;DHT22;11538;48.884;8.696;2022-10-16T03:39:19;16.50;99.90
22742;DHT22;11538;48.884;8.696;2022-10-16T03:41:46;16.50;99.90
22742;DHT22;11538;48.884;8.696;2022-10-16T03:44:13;16.40;99.90
22742;DHT22;11538;48.884;8.696;2022-10-16T03:46:39;16.40;99.90
22742;DHT22;11538;48.884;8.696;2022-10-16T03:49:06;16.40;99.90
22742;DHT22;11538;48.884;8.696;2022-10-16T03:51:35;16.40;99.90
22742;DHT22;11538;48.884;8.696;2022-10-16T03:54:02;16.40;99.90
22742;DHT22;11538;48.884;8.696;2022-10-16T03:56:29;16.40;99.90
22742;DHT22;11538;48.884;8.696;2022-10-16T03:58:56;16.40;99.90
22742;DHT22;11538;48.884;8.696;2022-10-16T04:01:23;16.30;99.90
22742;DHT22;11538;48.884;8.696;2022-10-16T04:03:50;16.30;99.90
22742;DHT22;11538;48.884;8.696;2022-10-16T04:06:16;16.30;99.90
22742;DHT22;11538;48.884;8.696;2022-10-16T04:08:43;16.30;99.90
22742;DHT22;11538;48.884;8.696;2022-10-16T04:11:10;16.30;99.90
22742;DHT22;11538;48.884;8.696;2022-10-16T04:13:37;16.30;99.90
22742;DHT22;11538;48.884;8.696;2022-10-16T04:16:04;16.30;99.90
22742;DHT22;11538;48.884;8.696;2022-10-16T04:18:30;16.30;99.90
22742;DHT22;11538;48.884;8.696;2022-10-16T04:21:01;16.30;99.90
22742;DHT22;11538;48.884;8.696;2022-10-16T04:23:29;16.30;99.90
22742;DHT22;11538;48.884;8.696;2022-10-16T04:25:56;16.30;99.90
22742;DHT22;11538;48.884;8.696;2022-10-16T04:28:23;16.30;99.90
22742;DHT22;11538;48.884;8.696;2022-10-16T04:30:49;16.30;99.90
22742;DHT22;11538;48.884;8.696;2022-10-16T04:33:16;16.30;99.90
22742;DHT22;11538;48.884;8.696;2022-10-16T04:35:43;16.30;99.90
22742;DHT22;11538;48.884;8.696;2022-10-16T04:38:10;16.20;99.90
22742;DHT22;11538;48.884;8.696;2022-10-16T04:40:37;16.20;99.90
22742;DHT22;11538;48.884;8.696;2022-10-16T04:43:04;16.20;99.90
22742;DHT22;11538;48.884;8.696;2022-10-16T04:45:31;16.20;99.90
22742;DHT22;11538;48.884;8.696;2022-10-16T04:47:58;16.20;99.90
22742;DHT22;11538;48.884;8.696;2022-10-16T04:50:25;16.20;99.90
22742;DHT22;11538;48.884;8.696;2022-10-16T04:52:52;16.20;99.90
22742;DHT22;11538;48.884;8.696;2022-10-16T04:55:19;16.20;99.90
22742;DHT22;11538;48.884;8.696;2022-10-16T04:57:46;16.20;99.90
22742;DHT22;11538;48.884;8.696;2022-10-16T05:00:12;16.20;99.90
22742;DHT22;11538;48.884;8.696;2022-10-16T05:02:39;16.10;99.90
22742;DHT22;11538;48.884;8.696;2022-10-16T05:05:06;16.10;99.90
22742;DHT22;11538;48.884;8.696;2022-10-16T05:07:33;16.10;99.90
22742;DHT22;11538;48.884;8.696;2022-10-16T05:10:00;16.10;99.90
22742;DHT22;11538;48.884;8.696;2022-10-16T05:12:27;16.00;99.90
22742;DHT22;11538;48.884;8.696;2022-10-16T05:14:53;16.00;99.90
22742;DHT22;11538;48.884;8.696;2022-10-16T05:17:25;16.00;99.90
22742;DHT22;11538;48.884;8.696;2022-10-16T05:19:52;16.00;99.90
22742;DHT22;11538;48.884;8.696;2022-10-16T05:22:19;16.00;99.90
22742;DHT22;11538;48.884;8.696;2022-10-16T05:24:46;16.00;99.90
22742;DHT22;11538;48.884;8.696;2022-10-16T05:27:13;16.00;99.90
22742;DHT22;11538;48.884;8.696;2022-10-16T05:29:45;15.90;99.90
22742;DHT22;11538;48.884;8.696;2022-10-16T05:32:13;15.90;99.90
22742;DHT22;11538;48.884;8.696;2022-10-16T05:34:44;15.90;99.90
22742;DHT22;11538;48.884;8.696;2022-10-16T05:37:12;15.90;99.90
22742;DHT22;11538;48.884;8.696;2022-10-16T05:39:39;15.90;99.90
22742;DHT22;11538;48.884;8.696;2022-10-16T05:42:06;15.90;99.90
22742;DHT22;11538;48.884;8.696;2022-10-16T05:44:33;15.90;99.90
22742;DHT22;11538;48.884;8.696;2022-10-16T05:47:04;15.90;99.90
22742;DHT22;11538;48.884;8.696;2022-10-16T05:49:31;15.90;99.90
22742;DHT22;11538;48.884;8.696;2022-10-16T05:52:02;15.90;99.90
22742;DHT22;11538;48.884;8.696;2022-10-16T05:54:28;15.90;99.90
22742;DHT22;11538;48.884;8.696;2022-10-16T05:56:55;15.80;99.90
22742;DHT22;11538;48.884;8.696;2022-10-16T05:59:22;15.80;99.90
22742;DHT22;11538;48.884;8.696;2022-10-16T06:01:49;15.80;99.90
22742;DHT22;11538;48.884;8.696;2022-10-16T06:04:15;15.90;99.90
22742;DHT22;11538;48.884;8.696;2022-10-16T06:06:42;15.90;99.90
22742;DHT22;11538;48.884;8.696;2022-10-16T06:09:09;15.90;99.90
22742;DHT22;11538;48.884;8.696;2022-10-16T06:11:36;15.90;99.90
22742;DHT22;11538;48.884;8.696;2022-10-16T06:14:03;15.90;99.90
22742;DHT22;11538;48.884;8.696;2022-10-16T06:16:34;15.90;99.90
22742;DHT22;11538;48.884;8.696;2022-10-16T06:19:02;15.80;99.90
22742;DHT22;11538;48.884;8.696;2022-10-16T06:21:32;15.80;99.90
22742;DHT22;11538;48.884;8.696;2022-10-16T06:23:59;15.80;99.90
22742;DHT22;11538;48.884;8.696;2022-10-16T06:26:28;15.90;99.90
22742;DHT22;11538;48.884;8.696;2022-10-16T06:28:57;15.90;99.90
22742;DHT22;11538;48.884;8.696;2022-10-16T06:31:26;15.90;99.90
22742;DHT22;11538;48.884;8.696;2022-10-16T06:33:57;15.90;99.90
22742;DHT22;11538;48.884;8.696;2022-10-16T06:36:24;15.90;99.90
22742;DHT22;11538;48.884;8.696;2022-10-16T06:38:52;15.90;99.90
22742;DHT22;11538;48.884;8.696;2022-10-16T06:41:20;15.90;99.90
22742;DHT22;11538;48.884;8.696;2022-10-16T06:43:48;15.90;99.90
22742;DHT22;11538;48.884;8.696;2022-10-16T06:46:16;15.90;99.90
22742;DHT22;11538;48.884;8.696;2022-10-16T06:48:44;15.90;99.90
22742;DHT22;11538;48.884;8.696;2022-10-16T06:51:12;15.90;99.90
22742;DHT22;11538;48.884;8.696;2022-10-16T06:53:44;16.00;99.90
22742;DHT22;11538;48.884;8.696;2022-10-16T06:56:30;16.00;99.90
22742;DHT22;11538;48.884;8.696;2022-10-16T06:58:58;16.00;99.90
22742;DHT22;11538;48.884;8.696;2022-10-16T07:01:26;16.00;99.90
22742;DHT22;11538;48.884;8.696;2022-10-16T07:03:52;16.00;99.90
22742;DHT22;11538;48.884;8.696;2022-10-16T07:06:21;16.00;99.90
22742;DHT22;11538;48.884;8.696;2022-10-16T07:08:49;16.10;99.90
22742;DHT22;11538;48.884;8.696;2022-10-16T07:11:17;16.10;99.90
22742;DHT22;11538;48.884;8.696;2022-10-16T07:13:46;16.10;99.90
22742;DHT22;11538;48.884;8.696;2022-10-16T07:16:21;16.10;99.90
22742;DHT22;11538;48.884;8.696;2022-10-16T07:18:50;16.10;99.90
22742;DHT22;11538;48.884;8.696;2022-10-16T07:21:21;16.10;99.90
22742;DHT22;11538;48.884;8.696;2022-10-16T07:23:52;16.10;99.90
22742;DHT22;11538;48.884;8.696;2022-10-16T07:26:21;16.20;99.90
22742;DHT22;11538;48.884;8.696;2022-10-16T07:28:49;16.20;99.90
22742;DHT22;11538;48.884;8.696;2022-10-16T07:31:16;16.20;99.90
22742;DHT22;11538;48.884;8.696;2022-10-16T07:33:47;16.30;99.90
22742;DHT22;11538;48.884;8.696;2022-10-16T07:36:15;16.40;99.90
22742;DHT22;11538;48.884;8.696;2022-10-16T07:38:44;16.40;99.90
22742;DHT22;11538;48.884;8.696;2022-10-16T07:41:13;16.50;99.90
22742;DHT22;11538;48.884;8.696;2022-10-16T07:43:46;16.60;99.90
22742;DHT22;11538;48.884;8.696;2022-10-16T07:46:17;16.70;99.90
22742;DHT22;11538;48.884;8.696;2022-10-16T07:48:46;16.70;99.90
22742;DHT22;11538;48.884;8.696;2022-10-16T07:51:15;16.80;99.90
22742;DHT22;11538;48.884;8.696;2022-10-16T07:53:47;16.80;99.90
22742;DHT22;11538;48.884;8.696;2022-10-16T07:56:14;16.90;99.90
22742;DHT22;11538;48.884;8.696;2022-10-16T07:58:42;17.00;99.90
22742;DHT22;11538;48.884;8.696;2022-10-16T08:01:09;17.10;99.90
22742;DHT22;11538;48.884;8.696;2022-10-16T08:03:38;17.10;99.90
22742;DHT22;11538;48.884;8.696;2022-10-16T08:06:07;17.20;99.90
22742;DHT22;11538;48.884;8.696;2022-10-16T08:08:35;17.20;99.90
22742;DHT22;11538;48.884;8.696;2022-10-16T08:11:02;17.30;99.90
22742;DHT22;11538;48.884;8.696;2022-10-16T08:13:32;17.40;99.90
22742;DHT22;11538;48.884;8.696;2022-10-16T08:15:59;17.50;99.90
22742;DHT22;11538;48.884;8.696;2022-10-16T08:18:25;17.50;99.90
22742;DHT22;11538;48.884;8.696;2022-10-16T08:20:56;17.60;99.90
22742;DHT22;11538;48.884;8.696;2022-10-16T08:23:24;17.70;99.90
22742;DHT22;11538;48.884;8.696;2022-10-16T08:25:54;17.70;99.90
22742;DHT22;11538;48.884;8.696;2022-10-16T08:28:22;17.80;99.90
22742;DHT22;11538;48.884;8.696;2022-10-16T08:30:49;17.90;99.90
22742;DHT22;11538;48.884;8.696;2022-10-16T08:33:16;17.90;99.90
22742;DHT22;11538;48.884;8.696;2022-10-16T08:35:49;17.90;99.90
22742;DHT22;11538;48.884;8.696;2022-10-16T08:38:17;18.00;99.90
22742;DHT22;11538;48.884;8.696;2022-10-16T08:40:44;18.10;99.90
22742;DHT22;11538;48.884;8.696;2022-10-16T08:43:24;18.10;99.90
22742;DHT22;11538;48.884;8.696;2022-10-16T08:49:16;18.30;99.90
22742;DHT22;11538;48.884;8.696;2022-10-16T08:51:44;18.30;99.90
22742;DHT22;11538;48.884;8.696;2022-10-16T08:56:55;18.40;99.90
22742;DHT22;11538;48.884;8.696;2022-10-16T08:59:23;18.40;99.90
22742;DHT22;11538;48.884;8.696;2022-10-16T09:01:50;18.50;99.90
22742;DHT22;11538;48.884;8.696;2022-10-16T09:18:59;19.00;99.90
22742;DHT22;11538;48.884;8.696;2022-10-16T09:21:29;19.10;99.90
22742;DHT22;11538;48.884;8.696;2022-10-16T09:24:09;19.20;99.90
22742;DHT22;11538;48.884;8.696;2022-10-16T09:26:40;19.30;99.90
22742;DHT22;11538;48.884;8.696;2022-10-16T09:29:14;19.40;99.90
22742;DHT22;11538;48.884;8.696;2022-10-16T09:31:43;19.50;99.90
22742;DHT22;11538;48.884;8.696;2022-10-16T09:34:17;19.60;99.90
22742;DHT22;11538;48.884;8.696;2022-10-16T09:36:56;19.70;99.90
22742;DHT22;11538;48.884;8.696;2022-10-16T09:39:24;19.80;99.90
22742;DHT22;11538;48.884;8.696;2022-10-16T09:41:51;19.90;99.90
22742;DHT22;11538;48.884;8.696;2022-10-16T09:47:01;20.20;99.90
22742;DHT22;11538;48.884;8.696;2022-10-16T09:49:32;20.40;99.90
22742;DHT22;11538;48.884;8.696;2022-10-16T09:52:03;20.60;99.90
22742;DHT22;11538;48.884;8.696;2022-10-16T09:54:31;20.70;99.90
22742;DHT22;11538;48.884;8.696;2022-10-16T09:57:05;20.70;99.90
22742;DHT22;11538;48.884;8.696;2022-10-16T09:59:45;20.80;99.90
22742;DHT22;11538;48.884;8.696;2022-10-16T10:02:14;20.80;99.90
22742;DHT22;11538;48.884;8.696;2022-10-16T10:04:50;20.90;99.90
22742;DHT22;11538;48.884;8.696;2022-10-16T10:07:23;20.90;99.90
22742;DHT22;11538;48.884;8.696;2022-10-16T10:09:59;21.00;99.90
22742;DHT22;11538;48.884;8.696;2022-10-16T10:12:28;21.00;99.90
22742;DHT22;11538;48.884;8.696;2022-10-16T10:15:03;21.00;99.90
22742;DHT22;11538;48.884;8.696;2022-10-16T10:17:33;21.10;99.90
22742;DHT22;11538;48.884;8.696;2022-10-16T10:22:51;21.20;99.90
22742;DHT22;11538;48.884;8.696;2022-10-16T10:25:25;21.20;99.90
22742;DHT22;11538;48.884;8.696;2022-10-16T10:30:59;21.40;99.90
22742;DHT22;11538;48.884;8.696;2022-10-16T10:33:47;21.40;99.90
22742;DHT22;11538;48.884;8.696;2022-10-16T10:42:22;21.70;99.90
22742;DHT22;11538;48.884;8.696;2022-10-16T10:55:53;22.50;99.90
22742;DHT22;11538;48.884;8.696;2022-10-16T10:58:49;22.70;99.90
22742;DHT22;11538;48.884;8.696;2022-10-16T11:06:51;22.80;99.90
22742;DHT22;11538;48.884;8.696;2022-10-16T11:12:16;22.90;99.90
22742;DHT22;11538;48.884;8.696;2022-10-16T11:17:22;22.90;99.90
22742;DHT22;11538;48.884;8.696;2022-10-16T11:19:54;22.90;99.90
22742;DHT22;11538;48.884;8.696;2022-10-16T11:27:49;22.80;99.90
22742;DHT22;11538;48.884;8.696;2022-10-16T11:30:52;22.70;99.90
22742;DHT22;11538;48.884;8.696;2022-10-16T11:33:35;22.70;99.90
22742;DHT22;11538;48.884;8.696;2022-10-16T11:36:23;22.60;99.90
22742;DHT22;11538;48.884;8.696;2022-10-16T11:39:03;22.70;99.90
22742;DHT22;11538;48.884;8.696;2022-10-16T11:41:45;22.80;99.90
22742;DHT22;11538;48.884;8.696;2022-10-16T11:55:50;23.70;99.90
22742;DHT22;11538;48.884;8.696;2022-10-16T12:08:51;24.20;99.90
22742;DHT22;11538;48.884;8.696;2022-10-16T12:11:22;24.40;99.90
22742;DHT22;11538;48.884;8.696;2022-10-16T12:14:18;24.40;99.90
22742;DHT22;11538;48.884;8.696;2022-10-16T12:16:55;24.40;99.90
22742;DHT22;11538;48.884;8.696;2022-10-16T12:19:22;24.20;99.90
22742;DHT22;11538;48.884;8.696;2022-10-16T12:21:51;24.10;99.90
22742;DHT22;11538;48.884;8.696;2022-10-16T12:24:29;24.00;99.90
22742;DHT22;11538;48.884;8.696;2022-10-16T12:27:04;24.00;99.90
22742;DHT22;11538;48.884;8.696;2022-10-16T12:29:41;24.10;99.90
22742;DHT22;11538;48.884;8.696;2022-10-16T12:35:24;24.10;99.90
22742;DHT22;11538;48.884;8.696;2022-10-16T12:38:06;24.00;99.90
22742;DHT22;11538;48.884;8.696;2022-10-16T12:40:44;23.90;99.90
22742;DHT22;11538;48.884;8.696;2022-10-16T12:46:01;23.70;99.90
22742;DHT22;11538;48.884;8.696;2022-10-16T12:48:32;23.50;99.90
22742;DHT22;11538;48.884;8.696;2022-10-16T12:54:03;23.40;99.90
22742;DHT22;11538;48.884;8.696;2022-10-16T12:59:09;23.30;99.90
22742;DHT22;11538;48.884;8.696;2022-10-16T13:01:54;23.20;99.90
22742;DHT22;11538;48.884;8.696;2022-10-16T13:07:14;23.00;99.90
22742;DHT22;11538;48.884;8.696;2022-10-16T13:10:04;23.00;99.90
22742;DHT22;11538;48.884;8.696;2022-10-16T13:18:04;23.60;99.90
22742;DHT22;11538;48.884;8.696;2022-10-16T13:26:56;23.80;99.90
22742;DHT22;11538;48.884;8.696;2022-10-16T13:29:38;23.80;99.90
22742;DHT22;11538;48.884;8.696;2022-10-16T13:32:08;23.70;99.90
22742;DHT22;11538;48.884;8.696;2022-10-16T13:34:45;23.60;99.90
22742;DHT22;11538;48.884;8.696;2022-10-16T13:37:17;23.40;99.90
22742;DHT22;11538;48.884;8.696;2022-10-16T13:39:48;23.30;99.90
22742;DHT22;11538;48.884;8.696;2022-10-16T13:42:25;23.10;99.90
22742;DHT22;11538;48.884;8.696;2022-10-16T13:44:54;23.00;99.90
22742;DHT22;11538;48.884;8.696;2022-10-16T13:47:27;22.90;99.90
22742;DHT22;11538;48.884;8.696;2022-10-16T13:50:15;22.90;99.90
22742;DHT22;11538;48.884;8.696;2022-10-16T13:52:43;22.80;99.90
22742;DHT22;11538;48.884;8.696;2022-10-16T13:55:12;22.80;99.90
22742;DHT22;11538;48.884;8.696;2022-10-16T13:57:40;22.70;99.90
22742;DHT22;11538;48.884;8.696;2022-10-16T14:00:21;22.70;99.90
22742;DHT22;11538;48.884;8.696;2022-10-16T14:02:53;22.60;99.90
22742;DHT22;11538;48.884;8.696;2022-10-16T14:05:33;22.40;99.90
22742;DHT22;11538;48.884;8.696;2022-10-16T14:08:01;22.40;99.90
22742;DHT22;11538;48.884;8.696;2022-10-16T14:10:29;22.30;99.90
22742;DHT22;11538;48.884;8.696;2022-10-16T14:13:02;22.20;99.90
22742;DHT22;11538;48.884;8.696;2022-10-16T14:15:32;22.20;99.90
22742;DHT22;11538;48.884;8.696;2022-10-16T14:18:02;22.10;99.90
22742;DHT22;11538;48.884;8.696;2022-10-16T14:20:31;22.00;99.90
22742;DHT22;11538;48.884;8.696;2022-10-16T14:23:04;21.90;99.90
22742;DHT22;11538;48.884;8.696;2022-10-16T14:25:52;21.90;99.90
22742;DHT22;11538;48.884;8.696;2022-10-16T14:28:20;21.80;99.90
22742;DHT22;11538;48.884;8.696;2022-10-16T14:30:51;21.80;99.90
22742;DHT22;11538;48.884;8.696;2022-10-16T14:38:32;21.80;99.90
22742;DHT22;11538;48.884;8.696;2022-10-16T14:41:00;21.80;99.90
22742;DHT22;11538;48.884;8.696;2022-10-16T14:43:30;21.80;99.90
22742;DHT22;11538;48.884;8.696;2022-10-16T14:45:59;21.80;99.90
22742;DHT22;11538;48.884;8.696;2022-10-16T14:48:29;21.80;99.90
22742;DHT22;11538;48.884;8.696;2022-10-16T14:50:56;21.80;99.90
22742;DHT22;11538;48.884;8.696;2022-10-16T14:53:23;21.80;99.90
22742;DHT22;11538;48.884;8.696;2022-10-16T14:55:50;21.80;99.90
22742;DHT22;11538;48.884;8.696;2022-10-16T14:58:21;21.80;99.90
22742;DHT22;11538;48.884;8.696;2022-10-16T15:00:49;21.80;99.90
22742;DHT22;11538;48.884;8.696;2022-10-16T15:03:16;21.80;99.90
22742;DHT22;11538;48.884;8.696;2022-10-16T15:05:43;21.80;99.90
22742;DHT22;11538;48.884;8.696;2022-10-16T15:08:10;21.80;99.90
22742;DHT22;11538;48.884;8.696;2022-10-16T15:10:41;21.80;99.90
22742;DHT22;11538;48.884;8.696;2022-10-16T15:13:13;21.80;99.90
22742;DHT22;11538;48.884;8.696;2022-10-16T15:15:44;21.70;99.90
22742;DHT22;11538;48.884;8.696;2022-10-16T15:18:12;21.70;99.90
22742;DHT22;11538;48.884;8.696;2022-10-16T15:20:41;21.60;99.90
22742;DHT22;11538;48.884;8.696;2022-10-16T15:23:18;21.50;99.90
22742;DHT22;11538;48.884;8.696;2022-10-16T15:25:48;21.50;99.90
22742;DHT22;11538;48.884;8.696;2022-10-16T15:28:19;21.50;99.90
22742;DHT22;11538;48.884;8.696;2022-10-16T15:30:51;21.50;99.90
22742;DHT22;11538;48.884;8.696;2022-10-16T15:33:21;21.40;99.90
22742;DHT22;11538;48.884;8.696;2022-10-16T15:35:51;21.40;99.90
22742;DHT22;11538;48.884;8.696;2022-10-16T15:38:19;21.40;99.90
22742;DHT22;11538;48.884;8.696;2022-10-16T15:40:47;21.40;99.90
22742;DHT22;11538;48.884;8.696;2022-10-16T15:43:15;21.30;99.90
22742;DHT22;11538;48.884;8.696;2022-10-16T15:45:42;21.30;99.90
22742;DHT22;11538;48.884;8.696;2022-10-16T15:48:10;21.30;99.90
22742;DHT22;11538;48.884;8.696;2022-10-16T15:50:39;21.20;99.90
22742;DHT22;11538;48.884;8.696;2022-10-16T15:53:07;21.20;99.90
22742;DHT22;11538;48.884;8.696;2022-10-16T15:55:34;21.10;99.90
22742;DHT22;11538;48.884;8.696;2022-10-16T15:58:04;21.10;99.90
22742;DHT22;11538;48.884;8.696;2022-10-16T16:00:31;21.00;99.90
22742;DHT22;11538;48.884;8.696;2022-10-16T16:02:58;20.90;99.90
22742;DHT22;11538;48.884;8.696;2022-10-16T16:05:25;20.90;99.90
22742;DHT22;11538;48.884;8.696;2022-10-16T16:07:53;20.80;99.90
22742;DHT22;11538;48.884;8.696;2022-10-16T16:10:21;20.80;99.90
22742;DHT22;11538;48.884;8.696;2022-10-16T16:12:48;20.70;99.90
22742;DHT22;11538;48.884;8.696;2022-10-16T16:15:20;20.60;99.90
22742;DHT22;11538;48.884;8.696;2022-10-16T16:17:48;20.50;99.90
22742;DHT22;11538;48.884;8.696;2022-10-16T16:20:15;20.40;99.90
22742;DHT22;11538;48.884;8.696;2022-10-16T16:22:42;20.30;99.90
22742;DHT22;11538;48.884;8.696;2022-10-16T16:25:09;20.20;99.90
22742;DHT22;11538;48.884;8.696;2022-10-16T16:27:35;20.10;99.90
22742;DHT22;11538;48.884;8.696;2022-10-16T16:30:05;20.00;99.90
22742;DHT22;11538;48.884;8.696;2022-10-16T16:32:34;19.90;99.90
22742;DHT22;11538;48.884;8.696;2022-10-16T16:35:01;19.90;99.90
22742;DHT22;11538;48.884;8.696;2022-10-16T16:37:29;19.80;99.90
22742;DHT22;11538;48.884;8.696;2022-10-16T16:39:56;19.70;99.90
22742;DHT22;11538;48.884;8.696;2022-10-16T16:42:25;19.70;99.90
22742;DHT22;11538;48.884;8.696;2022-10-16T16:44:53;19.60;99.90
22742;DHT22;11538;48.884;8.696;2022-10-16T16:47:21;19.60;99.90
22742;DHT22;11538;48.884;8.696;2022-10-16T16:49:49;19.60;99.90
22742;DHT22;11538;48.884;8.696;2022-10-16T16:52:16;19.50;99.90
22742;DHT22;11538;48.884;8.696;2022-10-16T16:54:43;19.50;99.90
22742;DHT22;11538;48.884;8.696;2022-10-16T16:57:11;19.40;99.90
22742;DHT22;11538;48.884;8.696;2022-10-16T16:59:38;19.40;99.90
22742;DHT22;11538;48.884;8.696;2022-10-16T17:02:05;19.30;99.90
22742;DHT22;11538;48.884;8.696;2022-10-16T17:04:32;19.20;99.90
22742;DHT22;11538;48.884;8.696;2022-10-16T17:06:59;19.20;99.90
22742;DHT22;11538;48.884;8.696;2022-10-16T17:09:28;19.20;99.90
22742;DHT22;11538;48.884;8.696;2022-10-16T17:11:57;19.10;99.90
22742;DHT22;11538;48.884;8.696;2022-10-16T17:14:24;19.10;99.90
22742;DHT22;11538;48.884;8.696;2022-10-16T17:16:52;19.00;99.90
22742;DHT22;11538;48.884;8.696;2022-10-16T17:19:19;19.00;99.90
22742;DHT22;11538;48.884;8.696;2022-10-16T17:21:51;18.90;99.90
22742;DHT22;11538;48.884;8.696;2022-10-16T17:24:18;18.80;99.90
22742;DHT22;11538;48.884;8.696;2022-10-16T17:26:46;18.70;99.90
22742;DHT22;11538;48.884;8.696;2022-10-16T17:29:15;18.70;99.90
22742;DHT22;11538;48.884;8.696;2022-10-16T17:31:44;18.70;99.90
22742;DHT22;11538;48.884;8.696;2022-10-16T17:34:11;18.60;99.90
22742;DHT22;11538;48.884;8.696;2022-10-16T17:36:39;18.60;99.90
22742;DHT22;11538;48.884;8.696;2022-10-16T17:39:10;18.50;99.90
22742;DHT22;11538;48.884;8.696;2022-10-16T17:41:39;18.50;99.90
22742;DHT22;11538;48.884;8.696;2022-10-16T17:44:06;18.50;99.90
22742;DHT22;11538;48.884;8.696;2022-10-16T17:46:34;18.50;99.90
22742;DHT22;11538;48.884;8.696;2022-10-16T17:49:06;18.40;99.90